Time;durP1;ratioP1;P1;durP2;ratioP2;P2;SDS_P1;SDS_P2;PMS_P1;PMS_P2;Temp;Humidity;BMP_temperature;BMP_pressure;BME280_temperature;BME280_humidity;BME280_pressure;Samples;Min_cycle;Max_cycle;Signal;HPM_P1;HPM_P2
2022/03/19 00:01:24;;;;;;;82.78;34.22;;;;;;;;;;5027920;27;100352;-72
2022/03/19 00:03:52;;;;;;;93.43;40.08;;;;;;;;;;5013885;27;100698;-71
2022/03/19 00:06:19;;;;;;;90.25;36.72;;;;;;;;;;5013485;27;100254;-71
2022/03/19 00:08:46;;;;;;;110.40;45.47;;;;;;;;;;4964988;27;100279;-71
2022/03/19 00:11:13;;;;;;;93.05;38.13;;;;;;;;;;5031360;27;100325;-72
2022/03/19 00:13:40;;;;;;;94.03;40.47;;;;;;;;;;5014232;27;101594;-71
2022/03/19 00:16:07;;;;;;;112.10;42.15;;;;;;;;;;4981183;27;100236;-71
2022/03/19 00:18:34;;;;;;;88.18;37.95;;;;;;;;;;4986655;27;100191;-73
2022/03/19 00:21:01;;;;;;;98.03;39.50;;;;;;;;;;5033238;27;100968;-71
2022/03/19 00:23:28;;;;;;;88.53;38.33;;;;;;;;;;5015773;27;100769;-71
2022/03/19 00:25:55;;;;;;;85.25;37.67;;;;;;;;;;5052306;27;100054;-71
2022/03/19 00:28:21;;;;;;;118.88;48.55;;;;;;;;;;5045186;27;100153;-71
2022/03/19 00:30:52;;;;;;;102.55;42.47;;;;;;;;;;4998125;27;100293;-71
2022/03/19 00:33:19;;;;;;;81.85;35.33;;;;;;;;;;5013342;27;100647;-71
2022/03/19 00:35:47;;;;;;;87.75;39.42;;;;;;;;;;4997127;28;100965;-71
2022/03/19 00:38:14;;;;;;;94.88;39.88;;;;;;;;;;5013462;27;100383;-71
2022/03/19 00:40:41;;;;;;;88.55;38.58;;;;;;;;;;5013525;27;100269;-71
2022/03/19 00:43:08;;;;;;;102.28;40.83;;;;;;;;;;5013612;27;100645;-71
2022/03/19 00:45:35;;;;;;;83.65;36.47;;;;;;;;;;5031043;27;100156;-71
2022/03/19 00:48:02;;;;;;;92.63;38.10;;;;;;;;;;4996949;27;100099;-72
2022/03/19 00:50:29;;;;;;;86.20;36.65;;;;;;;;;;5012751;27;100370;-71
2022/03/19 00:52:55;;;;;;;72.95;31.60;;;;;;;;;;5014145;27;100733;-72
2022/03/19 00:55:22;;;;;;;82.15;34.92;;;;;;;;;;5031614;27;100128;-72
2022/03/19 00:57:49;;;;;;;94.60;38.03;;;;;;;;;;5031468;27;100151;-71
2022/03/19 01:00:23;;;;;;;80.28;31.65;;;;;;;;;;5031214;27;100274;-71
2022/03/19 01:02:51;;;;;;;87.47;35.95;;;;;;;;;;4996435;27;100622;-72
2022/03/19 01:05:18;;;;;;;93.82;36.78;;;;;;;;;;4996966;27;100089;-73
2022/03/19 01:07:47;;;;;;;93.63;37.42;;;;;;;;;;5031650;27;100100;-71
2022/03/19 01:10:16;;;;;;;111.82;42.28;;;;;;;;;;4996585;27;100311;-71
2022/03/19 01:12:43;;;;;;;74.05;32.20;;;;;;;;;;4980307;27;102022;-72
2022/03/19 01:15:10;;;;;;;81.28;34.88;;;;;;;;;;5013118;27;100206;-71
2022/03/19 01:17:37;;;;;;;75.88;32.47;;;;;;;;;;5013186;27;100170;-71
2022/03/19 01:20:05;;;;;;;81.80;32.85;;;;;;;;;;5030728;27;100387;-71
2022/03/19 01:22:32;;;;;;;74.85;32.75;;;;;;;;;;4995235;27;100565;-71
2022/03/19 01:25:04;;;;;;;77.55;31.60;;;;;;;;;;4997677;27;100244;-71
2022/03/19 01:27:32;;;;;;;69.20;29.30;;;;;;;;;;5017255;27;100170;-71
2022/03/19 01:29:59;;;;;;;76.85;33.17;;;;;;;;;;4999719;27;100785;-71
2022/03/19 01:32:25;;;;;;;87.82;34.25;;;;;;;;;;4999773;27;100699;-71
2022/03/19 01:34:53;;;;;;;67.10;29.10;;;;;;;;;;5033869;27;100184;-71
2022/03/19 01:37:21;;;;;;;94.30;38.38;;;;;;;;;;4999664;27;100024;-71
2022/03/19 01:39:48;;;;;;;73.18;30.92;;;;;;;;;;5016223;27;100358;-71
2022/03/19 01:42:32;;;;;;;84.07;34.22;;;;;;;;;;4998353;27;100613;-71
2022/03/19 01:44:59;;;;;;;77.07;31.73;;;;;;;;;;5034262;27;100399;-71
2022/03/19 01:47:26;;;;;;;98.75;39.72;;;;;;;;;;5034370;27;100265;-72
2022/03/19 01:49:53;;;;;;;87.50;36.20;;;;;;;;;;4999098;27;100229;-71
2022/03/19 01:52:20;;;;;;;72.90;31.85;;;;;;;;;;5016107;27;100719;-72
2022/03/19 01:54:48;;;;;;;73.72;31.90;;;;;;;;;;4999818;27;100229;-71
2022/03/19 01:57:23;;;;;;;68.68;27.90;;;;;;;;;;5016450;27;100213;-71
2022/03/19 01:59:50;;;;;;;59.42;28.35;;;;;;;;;;5015416;27;100265;-71
2022/03/19 02:02:19;;;;;;;52.13;24.05;;;;;;;;;;5015839;27;100541;-71
2022/03/19 02:04:46;;;;;;;72.50;29.98;;;;;;;;;;5016403;27;100258;-71
2022/03/19 02:07:13;;;;;;;67.13;27.38;;;;;;;;;;5014918;27;100139;-72
2022/03/19 02:09:40;;;;;;;63.35;26.83;;;;;;;;;;5044124;27;100276;-71
2022/03/19 02:12:07;;;;;;;83.47;34.97;;;;;;;;;;5034730;27;100563;-71
2022/03/19 02:14:35;;;;;;;86.38;37.50;;;;;;;;;;5019406;27;100142;-71
2022/03/19 02:17:02;;;;;;;81.70;35.17;;;;;;;;;;5019924;27;100058;-71
2022/03/19 02:19:29;;;;;;;76.38;31.88;;;;;;;;;;5035274;27;101255;-71
2022/03/19 02:21:56;;;;;;;88.93;36.58;;;;;;;;;;5034584;27;100549;-71
2022/03/19 02:27:08;;;;;;;105.88;43.97;;;;;;;;;;5018198;27;100090;-71
2022/03/19 02:29:35;;;;;;;99.13;40.72;;;;;;;;;;4998951;27;100287;-71
2022/03/19 02:32:05;;;;;;;78.85;34.35;;;;;;;;;;4998419;27;100607;-71
2022/03/19 02:34:33;;;;;;;93.95;36.88;;;;;;;;;;4997849;27;100301;-71
2022/03/19 02:37:00;;;;;;;77.00;32.60;;;;;;;;;;5014530;27;100280;-71
2022/03/19 02:39:32;;;;;;;78.55;33.20;;;;;;;;;;5015854;27;100253;-72
2022/03/19 02:42:01;;;;;;;85.53;36.22;;;;;;;;;;5015066;27;101212;-72
2022/03/19 02:44:27;;;;;;;78.20;34.47;;;;;;;;;;5015535;27;100142;-71
2022/03/19 02:46:59;;;;;;;84.60;36.13;;;;;;;;;;4998494;27;100087;-71
2022/03/19 02:49:26;;;;;;;84.95;32.63;;;;;;;;;;5031907;27;100206;-72
2022/03/19 02:51:53;;;;;;;75.15;35.22;;;;;;;;;;4998459;27;100578;-72
2022/03/19 02:54:25;;;;;;;70.45;30.65;;;;;;;;;;5015594;27;100289;-72
2022/03/19 02:56:53;;;;;;;67.50;29.55;;;;;;;;;;5033141;27;100086;-73
2022/03/19 02:59:24;;;;;;;56.90;25.77;;;;;;;;;;5015043;27;100294;-72
2022/03/19 03:01:55;;;;;;;52.58;23.65;;;;;;;;;;5032167;27;103201;-71
2022/03/19 03:04:23;;;;;;;56.15;23.92;;;;;;;;;;4998867;27;100193;-72
2022/03/19 03:06:51;;;;;;;78.50;34.15;;;;;;;;;;5015715;27;100093;-72
2022/03/19 03:09:19;;;;;;;63.17;27.17;;;;;;;;;;5008089;27;103410;-72
2022/03/19 03:11:45;;;;;;;55.67;25.38;;;;;;;;;;5014494;27;102910;-72
2022/03/19 03:14:13;;;;;;;65.10;30.33;;;;;;;;;;4997788;27;100187;-72
2022/03/19 03:16:43;;;;;;;62.05;27.40;;;;;;;;;;4998378;27;100260;-72
2022/03/19 03:19:11;;;;;;;59.10;26.00;;;;;;;;;;4998048;27;100398;-72
2022/03/19 03:21:41;;;;;;;62.63;25.85;;;;;;;;;;4997726;27;100737;-72
2022/03/19 03:24:08;;;;;;;65.72;29.42;;;;;;;;;;5014882;27;100600;-72
2022/03/19 03:26:35;;;;;;;76.90;31.30;;;;;;;;;;4998705;27;100076;-72
2022/03/19 03:29:04;;;;;;;67.35;29.10;;;;;;;;;;5014804;27;100373;-72
2022/03/19 03:31:31;;;;;;;66.00;28.88;;;;;;;;;;4998762;28;100719;-71
2022/03/19 03:33:58;;;;;;;69.10;29.50;;;;;;;;;;4982759;27;100060;-72
2022/03/19 03:36:25;;;;;;;55.70;25.75;;;;;;;;;;5030191;27;100061;-72
2022/03/19 03:38:52;;;;;;;70.80;32.65;;;;;;;;;;5011532;27;102526;-70
2022/03/19 03:41:19;;;;;;;68.30;31.10;;;;;;;;;;5032565;27;100797;-71
2022/03/19 03:43:45;;;;;;;73.80;30.38;;;;;;;;;;5015323;28;100035;-71
2022/03/19 03:46:12;;;;;;;78.22;31.75;;;;;;;;;;4998255;27;100141;-71
2022/03/19 03:48:39;;;;;;;72.50;30.55;;;;;;;;;;5016137;27;100204;-72
2022/03/19 03:51:07;;;;;;;64.07;27.52;;;;;;;;;;5018391;27;100650;-69
2022/03/19 03:53:34;;;;;;;71.45;30.92;;;;;;;;;;5034879;27;103592;-71
2022/03/19 03:56:02;;;;;;;73.55;31.05;;;;;;;;;;5052845;27;100214;-71
2022/03/19 03:58:29;;;;;;;69.10;29.73;;;;;;;;;;5018239;27;100228;-70
2022/03/19 04:00:56;;;;;;;71.90;32.08;;;;;;;;;;5051755;27;101324;-71
2022/03/19 04:03:23;;;;;;;71.88;28.55;;;;;;;;;;5017589;27;100145;-70
2022/03/19 04:05:50;;;;;;;69.75;30.20;;;;;;;;;;5052611;27;100260;-70
2022/03/19 04:08:16;;;;;;;62.42;26.15;;;;;;;;;;5051825;27;100721;-71
2022/03/19 04:10:43;;;;;;;66.47;26.35;;;;;;;;;;5033862;27;100604;-71
2022/03/19 04:13:11;;;;;;;59.00;24.25;;;;;;;;;;5014411;27;100287;-71
2022/03/19 04:15:37;;;;;;;68.50;27.00;;;;;;;;;;4998103;27;99996;-71
2022/03/19 04:18:04;;;;;;;56.95;23.55;;;;;;;;;;5013347;28;100492;-70
2022/03/19 04:20:31;;;;;;;56.92;23.17;;;;;;;;;;4997049;27;101821;-71
2022/03/19 04:22:58;;;;;;;57.30;24.95;;;;;;;;;;4995891;27;100017;-71
2022/03/19 04:25:25;;;;;;;60.47;25.63;;;;;;;;;;4997335;28;100128;-70
2022/03/19 04:27:54;;;;;;;57.70;26.08;;;;;;;;;;4997025;27;100325;-71
2022/03/19 04:30:22;;;;;;;56.13;25.45;;;;;;;;;;4997403;27;100636;-71
2022/03/19 04:32:53;;;;;;;63.63;27.63;;;;;;;;;;5032247;27;104805;-71
2022/03/19 04:38:07;;;;;;;63.97;26.98;;;;;;;;;;5001728;27;100436;-71
2022/03/19 04:40:37;;;;;;;65.78;29.02;;;;;;;;;;5014030;27;100701;-71
2022/03/19 04:43:05;;;;;;;70.22;28.05;;;;;;;;;;4997927;27;100228;-71
2022/03/19 04:45:32;;;;;;;66.72;32.28;;;;;;;;;;5026583;27;99820;-71
2022/03/19 04:47:59;;;;;;;62.92;28.63;;;;;;;;;;5033865;27;100508;-71
2022/03/19 04:50:25;;;;;;;55.85;26.60;;;;;;;;;;5033536;27;100534;-71
2022/03/19 04:52:52;;;;;;;60.40;27.25;;;;;;;;;;5051781;27;100139;-71
2022/03/19 04:55:21;;;;;;;61.42;28.00;;;;;;;;;;5017955;27;100114;-71
2022/03/19 04:57:48;;;;;;;57.65;26.42;;;;;;;;;;5017027;27;100344;-71
2022/03/19 05:00:17;;;;;;;66.75;29.25;;;;;;;;;;5034861;27;100691;-71
2022/03/19 05:02:44;;;;;;;66.57;28.15;;;;;;;;;;5033808;28;100213;-71
2022/03/19 05:05:11;;;;;;;74.05;30.65;;;;;;;;;;5034054;28;100146;-71
2022/03/19 05:07:39;;;;;;;61.63;27.30;;;;;;;;;;5016176;28;100382;-71
2022/03/19 05:12:52;;;;;;;54.40;24.35;;;;;;;;;;5015299;28;100139;-71
2022/03/19 05:15:24;;;;;;;54.05;23.75;;;;;;;;;;5015182;28;99843;-71
2022/03/19 05:17:51;;;;;;;64.35;27.52;;;;;;;;;;5013016;28;100159;-73
2022/03/19 05:20:18;;;;;;;59.15;25.80;;;;;;;;;;5034919;27;100585;-71
2022/03/19 05:22:45;;;;;;;50.03;22.38;;;;;;;;;;5000597;28;100075;-71
2022/03/19 05:25:11;;;;;;;57.00;24.30;;;;;;;;;;5034754;27;100169;-71
2022/03/19 05:27:38;;;;;;;64.25;27.80;;;;;;;;;;5033825;27;100859;-71
2022/03/19 05:30:06;;;;;;;60.17;24.85;;;;;;;;;;5016722;28;100704;-71
2022/03/19 05:32:33;;;;;;;55.47;25.80;;;;;;;;;;5017146;28;100165;-71
2022/03/19 05:35:00;;;;;;;56.80;25.23;;;;;;;;;;5035161;27;99968;-71
2022/03/19 05:37:28;;;;;;;63.00;25.20;;;;;;;;;;5032888;28;103460;-72
2022/03/19 05:39:55;;;;;;;50.17;23.63;;;;;;;;;;5000171;28;100621;-71
2022/03/19 05:42:22;;;;;;;52.15;23.23;;;;;;;;;;5015927;28;100075;-71
2022/03/19 05:44:49;;;;;;;59.58;26.15;;;;;;;;;;5013622;28;100222;-71
2022/03/19 05:47:16;;;;;;;48.42;20.90;;;;;;;;;;5007357;28;100230;-71
2022/03/19 05:49:43;;;;;;;50.97;21.38;;;;;;;;;;5013248;28;100844;-71
2022/03/19 05:52:10;;;;;;;50.35;23.42;;;;;;;;;;5013069;28;100099;-71
2022/03/19 05:54:36;;;;;;;47.03;20.27;;;;;;;;;;5014189;28;100008;-71
2022/03/19 05:57:03;;;;;;;46.28;22.77;;;;;;;;;;5013796;28;100138;-72
2022/03/19 05:59:31;;;;;;;56.75;25.65;;;;;;;;;;5013475;28;100634;-72
2022/03/19 06:01:57;;;;;;;51.67;24.58;;;;;;;;;;4996477;28;100000;-71
2022/03/19 06:04:24;;;;;;;54.05;24.77;;;;;;;;;;5013982;28;100010;-72
2022/03/19 06:06:51;;;;;;;56.58;23.85;;;;;;;;;;5012843;28;101469;-72
2022/03/19 06:09:19;;;;;;;66.30;28.52;;;;;;;;;;5008621;28;102898;-72
2022/03/19 06:11:46;;;;;;;61.97;27.58;;;;;;;;;;5012960;28;100193;-72
2022/03/19 06:14:13;;;;;;;63.28;29.85;;;;;;;;;;5014057;28;99828;-72
2022/03/19 06:16:40;;;;;;;63.97;30.42;;;;;;;;;;4996034;28;100258;-72
2022/03/19 06:19:07;;;;;;;68.28;30.38;;;;;;;;;;5007004;28;100807;-72
2022/03/19 06:21:34;;;;;;;62.67;31.23;;;;;;;;;;5013815;28;99995;-71
2022/03/19 06:24:03;;;;;;;76.15;33.67;;;;;;;;;;5013207;28;101382;-72
2022/03/19 06:26:30;;;;;;;81.72;35.35;;;;;;;;;;4995780;28;100301;-71
2022/03/19 06:28:57;;;;;;;92.90;38.17;;;;;;;;;;4995309;28;100578;-72
2022/03/19 06:31:24;;;;;;;79.75;33.42;;;;;;;;;;5009180;28;102477;-72
2022/03/19 06:33:51;;;;;;;77.72;32.58;;;;;;;;;;5012197;28;99995;-72
2022/03/19 06:39:03;;;;;;;79.00;34.80;;;;;;;;;;5012991;28;100644;-71
2022/03/19 06:41:30;;;;;;;67.47;33.22;;;;;;;;;;5011941;28;100123;-71
2022/03/19 06:43:57;;;;;;;70.10;34.13;;;;;;;;;;5013466;28;100208;-72
2022/03/19 06:46:24;;;;;;;74.88;36.55;;;;;;;;;;5011880;28;100287;-71
2022/03/19 06:48:51;;;;;;;85.60;37.58;;;;;;;;;;4995291;28;100619;-72
2022/03/19 06:51:18;;;;;;;84.05;38.42;;;;;;;;;;5012466;28;99959;-71
2022/03/19 06:53:45;;;;;;;73.07;36.65;;;;;;;;;;5012896;28;100147;-72
2022/03/19 06:56:12;;;;;;;80.38;38.33;;;;;;;;;;5011334;28;100284;-72
2022/03/19 06:58:42;;;;;;;87.75;36.88;;;;;;;;;;5012598;28;100738;-71
2022/03/19 07:01:15;;;;;;;72.05;34.95;;;;;;;;;;5021545;27;100378;-72
2022/03/19 07:03:44;;;;;;;82.90;37.95;;;;;;;;;;5036665;27;100055;-72
2022/03/19 07:06:11;;;;;;;76.28;38.13;;;;;;;;;;5018378;27;100323;-72
2022/03/19 07:08:57;;;;;;;77.97;37.33;;;;;;;;;;5053150;27;100770;-72
2022/03/19 07:11:24;;;;;;;81.15;37.85;;;;;;;;;;5001932;27;100237;-75
2022/03/19 07:13:51;;;;;;;86.45;40.33;;;;;;;;;;5031015;27;102165;-72
2022/03/19 07:16:18;;;;;;;85.47;40.15;;;;;;;;;;4997518;27;100227;-72
2022/03/19 07:18:45;;;;;;;80.47;36.17;;;;;;;;;;5032482;27;100566;-72
2022/03/19 07:21:12;;;;;;;88.85;39.30;;;;;;;;;;5031970;27;100136;-72
2022/03/19 07:23:39;;;;;;;91.57;42.17;;;;;;;;;;5014321;27;100137;-72
2022/03/19 07:26:06;;;;;;;77.10;36.85;;;;;;;;;;5014812;27;100490;-72
2022/03/19 07:28:33;;;;;;;86.65;39.40;;;;;;;;;;5014784;27;100872;-72
2022/03/19 07:31:02;;;;;;;80.43;34.45;;;;;;;;;;5029736;27;100002;-72
2022/03/19 07:33:33;;;;;;;88.20;39.65;;;;;;;;;;5032449;27;100129;-72
2022/03/19 07:36:03;;;;;;;89.45;38.88;;;;;;;;;;5032322;27;103234;-72
2022/03/19 07:38:33;;;;;;;72.18;37.08;;;;;;;;;;5014337;27;101243;-72
2022/03/19 07:43:46;;;;;;;71.32;33.72;;;;;;;;;;5014322;27;100218;-71
2022/03/19 07:46:14;;;;;;;80.30;38.65;;;;;;;;;;4997218;27;100570;-72
2022/03/19 07:48:41;;;;;;;80.03;38.00;;;;;;;;;;5032161;27;100581;-72
2022/03/19 07:51:08;;;;;;;78.13;35.42;;;;;;;;;;5014819;27;99980;-72
2022/03/19 07:53:37;;;;;;;78.07;37.20;;;;;;;;;;5032831;27;100070;-71
2022/03/19 07:56:04;;;;;;;77.43;37.78;;;;;;;;;;5013148;27;100360;-71
2022/03/19 07:58:30;;;;;;;78.82;36.47;;;;;;;;;;4996268;27;101862;-72
2022/03/19 08:00:57;;;;;;;68.47;33.45;;;;;;;;;;5037888;27;102172;-72
2022/03/19 08:03:24;;;;;;;61.80;31.35;;;;;;;;;;5033809;27;100142;-71
2022/03/19 08:05:51;;;;;;;74.22;36.40;;;;;;;;;;5033240;27;100254;-72
2022/03/19 08:08:18;;;;;;;81.35;39.20;;;;;;;;;;5016417;27;100553;-72
2022/03/19 08:10:45;;;;;;;81.88;38.33;;;;;;;;;;5029793;27;100151;-71
2022/03/19 08:13:12;;;;;;;83.18;39.35;;;;;;;;;;4996826;27;100078;-71
2022/03/19 08:15:39;;;;;;;77.75;38.00;;;;;;;;;;5012870;27;100225;-71
2022/03/19 08:18:06;;;;;;;87.57;40.05;;;;;;;;;;5029588;27;100691;-71
2022/03/19 08:20:34;;;;;;;78.22;38.85;;;;;;;;;;5013361;27;100197;-71
2022/03/19 08:23:02;;;;;;;71.45;36.40;;;;;;;;;;5012556;27;100178;-72
2022/03/19 08:25:28;;;;;;;73.20;34.78;;;;;;;;;;5016781;27;101464;-71
2022/03/19 08:27:57;;;;;;;84.70;38.03;;;;;;;;;;5032668;27;100653;-71
2022/03/19 08:30:29;;;;;;;74.25;35.53;;;;;;;;;;5051178;27;100263;-72
2022/03/19 08:32:56;;;;;;;69.85;35.20;;;;;;;;;;5016571;27;100212;-73
2022/03/19 08:35:23;;;;;;;67.95;34.65;;;;;;;;;;5048848;27;100270;-73
2022/03/19 08:40:15;;;;;;;69.63;33.03;;;;;;;;;;4996591;27;101554;-71
2022/03/19 08:40:36;;;;;;;67.80;31.45;;;;;;;;;;5024553;27;101378;-71
2022/03/19 08:43:03;;;;;;;63.17;30.58;;;;;;;;;;5012663;27;100133;-72
2022/03/19 08:45:30;;;;;;;61.58;31.90;;;;;;;;;;5030169;27;100332;-72
2022/03/19 08:47:57;;;;;;;64.07;31.75;;;;;;;;;;5029216;27;100767;-71
2022/03/19 08:50:26;;;;;;;66.25;31.98;;;;;;;;;;5012601;27;100243;-72
2022/03/19 08:52:53;;;;;;;63.65;30.48;;;;;;;;;;4996584;27;100026;-72
2022/03/19 08:55:20;;;;;;;63.80;29.30;;;;;;;;;;5030214;27;100337;-72
2022/03/19 08:57:46;;;;;;;52.38;26.13;;;;;;;;;;5012338;27;100627;-72
2022/03/19 09:00:14;;;;;;;58.65;27.88;;;;;;;;;;5029960;27;100276;-72
2022/03/19 09:02:41;;;;;;;53.92;28.48;;;;;;;;;;5012594;27;100126;-71
2022/03/19 09:05:08;;;;;;;57.10;26.80;;;;;;;;;;5012125;27;100408;-72
2022/03/19 09:07:35;;;;;;;51.60;25.33;;;;;;;;;;5030123;27;100729;-73
2022/03/19 09:10:02;;;;;;;49.28;24.95;;;;;;;;;;5030280;27;100128;-72
2022/03/19 09:12:42;;;;;;;45.65;23.67;;;;;;;;;;4996682;27;100129;-72
2022/03/19 09:15:10;;;;;;;47.13;22.77;;;;;;;;;;5029117;27;100867;-71
2022/03/19 09:17:38;;;;;;;55.67;24.83;;;;;;;;;;5030504;27;101794;-72
2022/03/19 09:20:06;;;;;;;44.53;22.17;;;;;;;;;;5030001;27;100448;-71
2022/03/19 09:22:33;;;;;;;80.75;33.53;;;;;;;;;;5012318;27;100100;-71
2022/03/19 09:25:00;;;;;;;50.88;24.55;;;;;;;;;;5029773;27;100329;-73
2022/03/19 09:27:26;;;;;;;53.90;23.63;;;;;;;;;;5031244;27;100776;-71
2022/03/19 09:29:53;;;;;;;69.57;28.70;;;;;;;;;;5031646;27;100165;-72
2022/03/19 09:32:20;;;;;;;52.83;21.58;;;;;;;;;;4997240;27;100091;-71
2022/03/19 09:34:49;;;;;;;43.55;21.95;;;;;;;;;;4996859;28;100311;-71
2022/03/19 09:37:16;;;;;;;39.85;20.42;;;;;;;;;;5009575;27;101711;-72
2022/03/19 09:39:43;;;;;;;60.03;25.17;;;;;;;;;;5012934;27;100172;-71
2022/03/19 09:42:10;;;;;;;51.38;23.00;;;;;;;;;;5013159;27;99955;-71
2022/03/19 09:44:38;;;;;;;44.97;20.63;;;;;;;;;;4995768;28;101573;-72
2022/03/19 09:47:05;;;;;;;34.38;16.40;;;;;;;;;;5014612;27;101008;-72
2022/03/19 09:49:32;;;;;;;38.20;18.73;;;;;;;;;;5015846;27;100022;-72
2022/03/19 09:52:01;;;;;;;39.55;19.50;;;;;;;;;;4999811;27;100134;-72
2022/03/19 09:54:28;;;;;;;39.88;19.00;;;;;;;;;;5015845;28;100306;-72
2022/03/19 09:56:54;;;;;;;37.95;18.67;;;;;;;;;;5015013;27;100557;-72
2022/03/19 09:59:22;;;;;;;37.95;18.05;;;;;;;;;;5033791;27;99961;-71
2022/03/19 10:01:50;;;;;;;35.42;17.77;;;;;;;;;;5018466;27;100313;-71
2022/03/19 10:04:19;;;;;;;35.75;17.48;;;;;;;;;;5035329;27;100203;-71
2022/03/19 10:09:44;;;;;;;38.47;18.20;;;;;;;;;;5024294;27;100356;-72
2022/03/19 10:12:14;;;;;;;36.30;18.88;;;;;;;;;;5018918;27;100122;-71
2022/03/19 10:14:41;;;;;;;35.58;18.38;;;;;;;;;;5034919;27;100299;-70
2022/03/19 10:17:08;;;;;;;32.13;16.83;;;;;;;;;;5035205;27;100616;-71
2022/03/19 10:19:48;;;;;;;36.10;17.52;;;;;;;;;;5015481;27;100194;-71
2022/03/19 10:22:15;;;;;;;31.02;16.60;;;;;;;;;;4998769;27;100348;-71
2022/03/19 10:24:42;;;;;;;32.13;15.95;;;;;;;;;;5032002;27;100602;-71
2022/03/19 10:27:16;;;;;;;35.35;17.80;;;;;;;;;;5032665;27;100610;-71
2022/03/19 10:29:43;;;;;;;35.70;17.52;;;;;;;;;;4999415;27;100262;-71
2022/03/19 10:32:10;;;;;;;35.65;16.00;;;;;;;;;;5033626;27;100144;-72
2022/03/19 10:34:42;;;;;;;33.28;16.77;;;;;;;;;;4998566;27;100302;-71
2022/03/19 10:37:09;;;;;;;28.83;15.77;;;;;;;;;;5032850;27;100554;-71
2022/03/19 10:39:36;;;;;;;32.63;17.60;;;;;;;;;;5032463;27;100058;-72
2022/03/19 10:42:13;;;;;;;29.52;15.57;;;;;;;;;;4998339;27;100135;-71
2022/03/19 10:44:39;;;;;;;30.10;14.55;;;;;;;;;;4999559;27;100329;-71
2022/03/19 10:47:06;;;;;;;26.85;13.85;;;;;;;;;;5032062;27;101960;-71
2022/03/19 10:49:33;;;;;;;24.40;13.60;;;;;;;;;;5031953;27;100330;-71
2022/03/19 10:52:04;;;;;;;32.28;15.73;;;;;;;;;;5014397;27;100304;-72
2022/03/19 10:54:30;;;;;;;28.15;14.02;;;;;;;;;;4974474;27;104522;-72
2022/03/19 10:56:57;;;;;;;27.45;14.90;;;;;;;;;;4998126;27;100830;-72
2022/03/19 10:59:27;;;;;;;29.58;15.20;;;;;;;;;;5013949;27;100316;-72
2022/03/19 11:01:55;;;;;;;27.27;14.10;;;;;;;;;;4998599;27;99987;-72
2022/03/19 11:04:22;;;;;;;24.92;13.82;;;;;;;;;;5014221;27;101401;-72
2022/03/19 11:06:50;;;;;;;26.38;13.18;;;;;;;;;;5006739;27;100597;-73
2022/03/19 11:09:19;;;;;;;34.88;16.23;;;;;;;;;;5001858;27;100017;-72
2022/03/19 11:11:45;;;;;;;26.23;14.00;;;;;;;;;;5017845;27;100076;-72
2022/03/19 11:14:22;;;;;;;27.27;13.23;;;;;;;;;;5052478;27;100386;-72
2022/03/19 11:19:46;;;;;;;24.27;12.93;;;;;;;;;;5015322;27;102241;-71
2022/03/19 11:22:14;;;;;;;29.23;13.40;;;;;;;;;;4998676;27;99869;-72
2022/03/19 11:24:51;;;;;;;28.75;13.73;;;;;;;;;;5032175;27;100572;-72
2022/03/19 11:27:18;;;;;;;28.10;14.90;;;;;;;;;;5014635;27;100605;-72
2022/03/19 11:29:45;;;;;;;26.05;13.00;;;;;;;;;;5014070;27;100266;-72
2022/03/19 11:32:30;;;;;;;26.13;12.32;;;;;;;;;;5014607;27;101536;-72
2022/03/19 11:34:59;;;;;;;28.52;12.52;;;;;;;;;;5013547;27;100428;-72
2022/03/19 11:38:01;;;;;;;27.45;14.30;;;;;;;;;;4981465;27;100796;-72
2022/03/19 11:40:31;;;;;;;23.65;11.95;;;;;;;;;;5013967;27;100201;-72
2022/03/19 11:43:35;;;;;;;29.15;13.27;;;;;;;;;;5032360;27;99920;-73
2022/03/19 11:46:09;;;;;;;28.65;13.30;;;;;;;;;;5031713;27;100212;-72
2022/03/19 11:48:36;;;;;;;23.00;12.05;;;;;;;;;;5013418;27;103732;-73
2022/03/19 11:51:44;;;;;;;24.88;12.25;;;;;;;;;;5031646;27;100030;-71
2022/03/19 11:54:19;;;;;;;24.25;12.95;;;;;;;;;;5032053;27;100164;-71
2022/03/19 11:56:46;;;;;;;23.40;11.85;;;;;;;;;;4999133;27;100233;-71
2022/03/19 11:59:16;;;;;;;24.55;12.73;;;;;;;;;;5010723;27;100815;-71
2022/03/19 12:01:58;;;;;;;21.88;11.60;;;;;;;;;;5031315;27;100180;-72
2022/03/19 12:04:51;;;;;;;21.33;11.55;;;;;;;;;;5031950;27;99877;-71
2022/03/19 12:07:37;;;;;;;17.25;10.30;;;;;;;;;;5014149;27;100483;-72
2022/03/19 12:10:21;;;;;;;22.20;11.05;;;;;;;;;;5031499;27;100565;-71
2022/03/19 12:12:50;;;;;;;24.13;11.53;;;;;;;;;;5012866;27;100381;-71
2022/03/19 12:15:32;;;;;;;22.25;11.43;;;;;;;;;;5013077;27;100358;-71
2022/03/19 12:18:37;;;;;;;21.65;11.55;;;;;;;;;;5030143;27;101046;-71
2022/03/19 12:21:13;;;;;;;21.80;11.52;;;;;;;;;;5031333;27;100597;-72
2022/03/19 12:23:47;;;;;;;21.42;11.70;;;;;;;;;;5011712;27;100397;-71
2022/03/19 12:26:16;;;;;;;21.38;10.93;;;;;;;;;;5014422;27;99901;-73
2022/03/19 12:28:46;;;;;;;24.13;11.40;;;;;;;;;;4997097;27;100304;-71
2022/03/19 12:31:14;;;;;;;20.45;11.30;;;;;;;;;;5013894;27;100703;-73
2022/03/19 12:33:43;;;;;;;22.95;11.15;;;;;;;;;;5014173;27;99888;-73
2022/03/19 12:36:17;;;;;;;22.92;12.85;;;;;;;;;;5031625;27;100113;-71
2022/03/19 12:38:45;;;;;;;20.93;10.90;;;;;;;;;;4996633;27;100732;-71
2022/03/19 12:41:28;;;;;;;19.55;10.02;;;;;;;;;;5013379;28;103870;-71
2022/03/19 12:44:22;;;;;;;19.55;10.07;;;;;;;;;;5015921;27;100236;-71
2022/03/19 12:46:54;;;;;;;19.13;10.45;;;;;;;;;;5013509;27;100201;-72
2022/03/19 12:49:21;;;;;;;19.80;9.60;;;;;;;;;;5012069;27;100241;-72
2022/03/19 12:51:48;;;;;;;20.35;10.73;;;;;;;;;;5012883;27;100997;-72
2022/03/19 12:54:20;;;;;;;19.98;10.80;;;;;;;;;;5031395;27;100176;-72
2022/03/19 12:56:50;;;;;;;21.50;10.82;;;;;;;;;;5032131;27;100158;-73
2022/03/19 12:59:18;;;;;;;19.58;9.98;;;;;;;;;;5033283;27;100283;-71
2022/03/19 13:01:46;;;;;;;17.63;9.68;;;;;;;;;;5028851;28;101992;-70
2022/03/19 13:04:33;;;;;;;20.88;10.35;;;;;;;;;;5012592;28;100270;-71
2022/03/19 13:06:59;;;;;;;19.80;10.23;;;;;;;;;;5031504;27;100109;-71
2022/03/19 13:09:31;;;;;;;16.77;9.00;;;;;;;;;;5012485;28;100564;-71
2022/03/19 13:11:59;;;;;;;19.20;8.65;;;;;;;;;;5028774;28;100628;-71
2022/03/19 13:14:26;;;;;;;19.80;9.70;;;;;;;;;;5029163;28;100325;-71
2022/03/19 13:16:55;;;;;;;18.27;9.05;;;;;;;;;;5029787;28;100346;-71
2022/03/19 13:19:23;;;;;;;19.40;10.40;;;;;;;;;;5028072;28;100451;-71
2022/03/19 13:21:50;;;;;;;19.48;9.13;;;;;;;;;;5014528;28;100543;-71
2022/03/19 13:24:17;;;;;;;18.17;9.35;;;;;;;;;;5033287;28;100043;-73
2022/03/19 13:26:45;;;;;;;16.25;8.82;;;;;;;;;;5033063;28;100152;-72
2022/03/19 13:29:35;;;;;;;17.33;10.10;;;;;;;;;;5016244;28;100210;-72
2022/03/19 13:32:07;;;;;;;19.35;9.70;;;;;;;;;;5032813;28;100688;-72
2022/03/19 13:34:36;;;;;;;16.83;9.27;;;;;;;;;;5032601;28;100230;-72
2022/03/19 13:37:07;;;;;;;17.00;9.05;;;;;;;;;;5016427;28;100255;-72
2022/03/19 13:39:36;;;;;;;15.95;9.38;;;;;;;;;;5032076;28;100274;-72
2022/03/19 13:42:10;;;;;;;16.13;8.23;;;;;;;;;;5016499;28;100548;-72
2022/03/19 13:44:37;;;;;;;20.20;8.95;;;;;;;;;;5033946;28;100089;-72
2022/03/19 13:47:09;;;;;;;17.08;8.60;;;;;;;;;;5032725;28;99894;-72
2022/03/19 13:50:09;;;;;;;13.73;7.97;;;;;;;;;;5032130;28;100329;-72
2022/03/19 13:52:42;;;;;;;17.00;8.07;;;;;;;;;;4980659;28;103533;-72
2022/03/19 13:55:11;;;;;;;14.97;8.13;;;;;;;;;;5014108;28;100100;-72
2022/03/19 13:57:54;;;;;;;13.95;7.45;;;;;;;;;;5013158;28;100069;-72
2022/03/19 14:00:27;;;;;;;14.70;7.90;;;;;;;;;;5012937;28;100339;-72
2022/03/19 14:03:02;;;;;;;15.25;7.30;;;;;;;;;;5016185;28;100736;-72
2022/03/19 14:05:31;;;;;;;16.95;7.72;;;;;;;;;;5031647;28;99923;-72
2022/03/19 14:08:01;;;;;;;13.88;7.70;;;;;;;;;;5016140;28;100224;-72
2022/03/19 14:10:32;;;;;;;14.65;6.85;;;;;;;;;;5010240;28;102278;-72
2022/03/19 14:13:06;;;;;;;14.68;7.30;;;;;;;;;;5013238;28;100758;-72
2022/03/19 14:15:44;;;;;;;12.57;7.43;;;;;;;;;;5012473;28;100343;-72
2022/03/19 14:18:27;;;;;;;18.50;7.63;;;;;;;;;;4996302;28;100212;-72
2022/03/19 14:20:55;;;;;;;13.10;7.45;;;;;;;;;;5011332;28;100385;-72
2022/03/19 14:23:22;;;;;;;13.32;6.60;;;;;;;;;;5009926;28;100587;-72
2022/03/19 14:25:51;;;;;;;14.88;6.90;;;;;;;;;;4996149;28;100176;-72
2022/03/19 14:28:19;;;;;;;11.77;6.63;;;;;;;;;;5012040;28;100200;-72
2022/03/19 14:30:48;;;;;;;14.10;6.85;;;;;;;;;;5011566;28;100148;-72
2022/03/19 14:33:15;;;;;;;13.13;6.95;;;;;;;;;;4995413;28;101942;-72
2022/03/19 14:35:48;;;;;;;10.80;6.43;;;;;;;;;;5012304;28;100078;-71
2022/03/19 14:38:19;;;;;;;11.15;6.32;;;;;;;;;;5020602;28;101721;-71